sensor_id;sensor_type;location;lat;lon;timestamp;temperature;humidity
31455;DHT22;18084;53.028;8.834;2023-07-28T00:33:39;17.70;99.90
31455;DHT22;18084;53.028;8.834;2023-07-28T00:36:04;17.60;99.90
31455;DHT22;18084;53.028;8.834;2023-07-28T00:38:30;17.60;99.90
31455;DHT22;18084;53.028;8.834;2023-07-28T00:40:56;20.40;99.90
31455;DHT22;18084;53.028;8.834;2023-07-28T00:50:42;17.70;99.90
31455;DHT22;18084;53.028;8.834;2023-07-28T00:55:36;17.70;99.90
31455;DHT22;18084;53.028;8.834;2023-07-28T00:58:02;17.60;99.90
31455;DHT22;18084;53.028;8.834;2023-07-28T01:00:28;17.70;99.90
31455;DHT22;18084;53.028;8.834;2023-07-28T01:05:25;17.60;99.90
31455;DHT22;18084;53.028;8.834;2023-07-28T01:08:11;21.70;99.90
31455;DHT22;18084;53.028;8.834;2023-07-28T01:10:42;17.70;99.90
31455;DHT22;18084;53.028;8.834;2023-07-28T01:13:08;18.90;99.90
31455;DHT22;18084;53.028;8.834;2023-07-28T01:18:00;17.70;99.90
31455;DHT22;18084;53.028;8.834;2023-07-28T01:20:29;17.60;99.90
31455;DHT22;18084;53.028;8.834;2023-07-28T01:23:20;17.60;99.90
31455;DHT22;18084;53.028;8.834;2023-07-28T01:26:08;17.60;99.90
31455;DHT22;18084;53.028;8.834;2023-07-28T01:28:39;17.60;99.90
31455;DHT22;18084;53.028;8.834;2023-07-28T01:31:06;17.70;99.90
31455;DHT22;18084;53.028;8.834;2023-07-28T01:35:57;17.60;99.90
31455;DHT22;18084;53.028;8.834;2023-07-28T01:40:51;17.60;99.90
31455;DHT22;18084;53.028;8.834;2023-07-28T01:43:17;17.60;99.90
31455;DHT22;18084;53.028;8.834;2023-07-28T01:45:42;21.00;99.90
31455;DHT22;18084;53.028;8.834;2023-07-28T01:48:08;17.60;99.90
31455;DHT22;18084;53.028;8.834;2023-07-28T01:55:27;17.60;99.90
31455;DHT22;18084;53.028;8.834;2023-07-28T01:57:57;17.60;99.90
31455;DHT22;18084;53.028;8.834;2023-07-28T02:00:24;17.60;99.90
31455;DHT22;18084;53.028;8.834;2023-07-28T02:02:50;17.20;99.90
31455;DHT22;18084;53.028;8.834;2023-07-28T02:05:16;20.90;99.90
31455;DHT22;18084;53.028;8.834;2023-07-28T02:15:01;17.50;99.90
31455;DHT22;18084;53.028;8.834;2023-07-28T02:17:27;17.60;99.90
31455;DHT22;18084;53.028;8.834;2023-07-28T02:22:18;17.60;99.90
31455;DHT22;18084;53.028;8.834;2023-07-28T02:32:02;17.60;99.90
31455;DHT22;18084;53.028;8.834;2023-07-28T02:36:54;17.60;99.90
31455;DHT22;18084;53.028;8.834;2023-07-28T02:41:46;17.60;99.90
31455;DHT22;18084;53.028;8.834;2023-07-28T02:44:11;17.60;99.90
31455;DHT22;18084;53.028;8.834;2023-07-28T02:51:30;17.50;99.90
31455;DHT22;18084;53.028;8.834;2023-07-28T02:56:21;17.50;99.90
31455;DHT22;18084;53.028;8.834;2023-07-28T03:01:13;17.50;99.90
31455;DHT22;18084;53.028;8.834;2023-07-28T03:06:04;17.50;99.90
31455;DHT22;18084;53.028;8.834;2023-07-28T03:10:57;17.60;99.90
31455;DHT22;18084;53.028;8.834;2023-07-28T03:13:23;17.50;99.90
31455;DHT22;18084;53.028;8.834;2023-07-28T03:18:15;17.50;99.90
31455;DHT22;18084;53.028;8.834;2023-07-28T03:23:06;17.60;99.90
31455;DHT22;18084;53.028;8.834;2023-07-28T03:30:24;17.60;99.90
31455;DHT22;18084;53.028;8.834;2023-07-28T04:03:29;17.60;99.90
31455;DHT22;18084;53.028;8.834;2023-07-28T04:08:21;17.60;99.90
31455;DHT22;18084;53.028;8.834;2023-07-28T04:18:04;17.60;99.90
31455;DHT22;18084;53.028;8.834;2023-07-28T04:22:56;17.60;99.90
31455;DHT22;18084;53.028;8.834;2023-07-28T04:30:13;17.60;99.90
31455;DHT22;18084;53.028;8.834;2023-07-28T04:32:39;17.60;99.90
31455;DHT22;18084;53.028;8.834;2023-07-28T04:35:05;17.60;99.90
31455;DHT22;18084;53.028;8.834;2023-07-28T04:39:56;17.60;99.90
31455;DHT22;18084;53.028;8.834;2023-07-28T04:52:07;17.60;99.90
31455;DHT22;18084;53.028;8.834;2023-07-28T04:54:32;17.60;99.90
31455;DHT22;18084;53.028;8.834;2023-07-28T04:56:58;17.60;99.90
31455;DHT22;18084;53.028;8.834;2023-07-28T05:04:15;17.60;99.90
31455;DHT22;18084;53.028;8.834;2023-07-28T05:06:41;17.70;99.90
31455;DHT22;18084;53.028;8.834;2023-07-28T05:09:06;17.60;99.90
31455;DHT22;18084;53.028;8.834;2023-07-28T05:11:32;17.60;99.90
31455;DHT22;18084;53.028;8.834;2023-07-28T05:13:57;19.10;99.90
31455;DHT22;18084;53.028;8.834;2023-07-28T05:21:14;17.70;99.90
31455;DHT22;18084;53.028;8.834;2023-07-28T05:26:06;17.70;99.90
31455;DHT22;18084;53.028;8.834;2023-07-28T05:28:34;17.70;99.90
31455;DHT22;18084;53.028;8.834;2023-07-28T05:31:05;17.70;99.90
31455;DHT22;18084;53.028;8.834;2023-07-28T05:36:03;17.70;99.90
31455;DHT22;18084;53.028;8.834;2023-07-28T05:40:58;17.70;99.90
31455;DHT22;18084;53.028;8.834;2023-07-28T05:43:26;17.70;99.90
31455;DHT22;18084;53.028;8.834;2023-07-28T05:45:51;17.70;99.90
31455;DHT22;18084;53.028;8.834;2023-07-28T05:50:43;17.80;99.90
31455;DHT22;18084;53.028;8.834;2023-07-28T05:53:08;17.90;99.90
31455;DHT22;18084;53.028;8.834;2023-07-28T05:55:33;18.50;99.90
31455;DHT22;18084;53.028;8.834;2023-07-28T05:57:59;19.70;99.90
31455;DHT22;18084;53.028;8.834;2023-07-28T06:00:25;17.90;99.90
31455;DHT22;18084;53.028;8.834;2023-07-28T06:02:50;18.00;99.90
31455;DHT22;18084;53.028;8.834;2023-07-28T06:05:16;18.00;99.90
31455;DHT22;18084;53.028;8.834;2023-07-28T06:10:07;18.00;99.90
31455;DHT22;18084;53.028;8.834;2023-07-28T06:17:25;18.10;99.90
31455;DHT22;18084;53.028;8.834;2023-07-28T06:19:52;18.20;99.90
31455;DHT22;18084;53.028;8.834;2023-07-28T06:24:48;18.20;99.90
31455;DHT22;18084;53.028;8.834;2023-07-28T06:27:13;18.90;99.90
31455;DHT22;18084;53.028;8.834;2023-07-28T06:29:39;18.20;99.90
31455;DHT22;18084;53.028;8.834;2023-07-28T06:32:05;18.20;99.90
31455;DHT22;18084;53.028;8.834;2023-07-28T06:34:31;18.20;99.90
31455;DHT22;18084;53.028;8.834;2023-07-28T06:36:56;20.20;99.90
31455;DHT22;18084;53.028;8.834;2023-07-28T06:39:23;18.20;99.90
31455;DHT22;18084;53.028;8.834;2023-07-28T06:41:50;18.20;99.90
31455;DHT22;18084;53.028;8.834;2023-07-28T06:44:15;18.20;99.90
31455;DHT22;18084;53.028;8.834;2023-07-28T06:46:41;18.50;99.90
31455;DHT22;18084;53.028;8.834;2023-07-28T06:49:06;18.30;99.90
31455;DHT22;18084;53.028;8.834;2023-07-28T06:51:32;18.20;99.90
31455;DHT22;18084;53.028;8.834;2023-07-28T06:56:24;18.30;99.90
31455;DHT22;18084;53.028;8.834;2023-07-28T07:01:16;18.40;99.90
31455;DHT22;18084;53.028;8.834;2023-07-28T07:03:43;18.60;99.90
31455;DHT22;18084;53.028;8.834;2023-07-28T07:06:09;18.40;99.90
31455;DHT22;18084;53.028;8.834;2023-07-28T07:11:00;18.60;99.90
31455;DHT22;18084;53.028;8.834;2023-07-28T07:13:26;18.50;99.90
31455;DHT22;18084;53.028;8.834;2023-07-28T07:15:51;18.60;99.90
31455;DHT22;18084;53.028;8.834;2023-07-28T07:18:17;18.60;99.90
31455;DHT22;18084;53.028;8.834;2023-07-28T07:20:43;18.80;99.90
31455;DHT22;18084;53.028;8.834;2023-07-28T07:23:08;18.80;99.90
31455;DHT22;18084;53.028;8.834;2023-07-28T07:25:34;18.70;99.90
31455;DHT22;18084;53.028;8.834;2023-07-28T07:27:59;18.60;99.90
31455;DHT22;18084;53.028;8.834;2023-07-28T07:30:25;18.70;99.90
31455;DHT22;18084;53.028;8.834;2023-07-28T07:35:16;18.60;99.90
31455;DHT22;18084;53.028;8.834;2023-07-28T07:37:42;18.60;99.90
31455;DHT22;18084;53.028;8.834;2023-07-28T07:40:09;18.70;99.90
31455;DHT22;18084;53.028;8.834;2023-07-28T07:42:48;18.70;99.90
31455;DHT22;18084;53.028;8.834;2023-07-28T07:45:14;18.70;99.90
31455;DHT22;18084;53.028;8.834;2023-07-28T07:47:41;20.20;99.90
31455;DHT22;18084;53.028;8.834;2023-07-28T07:50:07;20.10;99.90
31455;DHT22;18084;53.028;8.834;2023-07-28T07:52:35;18.80;99.90
31455;DHT22;18084;53.028;8.834;2023-07-28T07:55:01;18.80;99.90
31455;DHT22;18084;53.028;8.834;2023-07-28T07:57:27;21.00;99.90
31455;DHT22;18084;53.028;8.834;2023-07-28T07:59:53;21.20;99.90
31455;DHT22;18084;53.028;8.834;2023-07-28T08:02:18;19.30;99.90
31455;DHT22;18084;53.028;8.834;2023-07-28T08:04:44;19.70;99.90
31455;DHT22;18084;53.028;8.834;2023-07-28T08:07:09;19.50;99.90
31455;DHT22;18084;53.028;8.834;2023-07-28T08:09:35;19.40;99.90
31455;DHT22;18084;53.028;8.834;2023-07-28T08:12:01;19.40;99.90
31455;DHT22;18084;53.028;8.834;2023-07-28T08:14:27;19.40;99.90
31455;DHT22;18084;53.028;8.834;2023-07-28T08:16:53;19.50;99.90
31455;DHT22;18084;53.028;8.834;2023-07-28T08:19:19;20.20;99.90
31455;DHT22;18084;53.028;8.834;2023-07-28T08:21:45;19.50;99.90
31455;DHT22;18084;53.028;8.834;2023-07-28T08:24:10;21.60;99.90
31455;DHT22;18084;53.028;8.834;2023-07-28T08:26:37;19.50;99.90
31455;DHT22;18084;53.028;8.834;2023-07-28T08:29:02;19.80;99.90
31455;DHT22;18084;53.028;8.834;2023-07-28T08:31:28;19.50;99.90
31455;DHT22;18084;53.028;8.834;2023-07-28T08:33:53;20.70;99.90
31455;DHT22;18084;53.028;8.834;2023-07-28T08:36:19;19.50;99.90
31455;DHT22;18084;53.028;8.834;2023-07-28T08:41:12;19.50;99.90
31455;DHT22;18084;53.028;8.834;2023-07-28T08:43:37;22.60;99.90
31455;DHT22;18084;53.028;8.834;2023-07-28T08:48:29;19.50;99.90
31455;DHT22;18084;53.028;8.834;2023-07-28T08:53:21;19.50;99.90
31455;DHT22;18084;53.028;8.834;2023-07-28T08:55:48;21.90;99.90
31455;DHT22;18084;53.028;8.834;2023-07-28T08:58:21;19.50;99.90
31455;DHT22;18084;53.028;8.834;2023-07-28T09:00:48;19.60;99.90
31455;DHT22;18084;53.028;8.834;2023-07-28T09:03:17;19.20;99.90
31455;DHT22;18084;53.028;8.834;2023-07-28T09:05:44;19.70;99.90
31455;DHT22;18084;53.028;8.834;2023-07-28T09:08:12;19.50;99.90
31455;DHT22;18084;53.028;8.834;2023-07-28T09:10:45;19.60;99.90
31455;DHT22;18084;53.028;8.834;2023-07-28T09:13:12;20.00;99.90
31455;DHT22;18084;53.028;8.834;2023-07-28T09:15:38;19.60;99.90
31455;DHT22;18084;53.028;8.834;2023-07-28T09:18:10;19.80;99.90
31455;DHT22;18084;53.028;8.834;2023-07-28T09:20:38;19.90;99.90
31455;DHT22;18084;53.028;8.834;2023-07-28T09:23:04;19.90;99.90
31455;DHT22;18084;53.028;8.834;2023-07-28T09:25:31;19.80;99.90
31455;DHT22;18084;53.028;8.834;2023-07-28T09:27:58;19.90;99.90
31455;DHT22;18084;53.028;8.834;2023-07-28T09:30:24;20.00;99.90
31455;DHT22;18084;53.028;8.834;2023-07-28T09:32:51;20.30;99.90
31455;DHT22;18084;53.028;8.834;2023-07-28T09:35:18;20.60;99.90
31455;DHT22;18084;53.028;8.834;2023-07-28T09:37:45;21.40;99.90
31455;DHT22;18084;53.028;8.834;2023-07-28T09:40:14;20.80;99.90
31455;DHT22;18084;53.028;8.834;2023-07-28T09:42:43;20.70;99.90
31455;DHT22;18084;53.028;8.834;2023-07-28T09:45:17;20.60;99.90
31455;DHT22;18084;53.028;8.834;2023-07-28T09:47:45;20.70;99.90
31455;DHT22;18084;53.028;8.834;2023-07-28T09:50:18;21.40;99.90
31455;DHT22;18084;53.028;8.834;2023-07-28T09:52:51;20.20;99.90
31455;DHT22;18084;53.028;8.834;2023-07-28T09:55:20;20.20;99.90
31455;DHT22;18084;53.028;8.834;2023-07-28T09:57:53;20.10;99.90
31455;DHT22;18084;53.028;8.834;2023-07-28T10:00:21;20.20;99.90
31455;DHT22;18084;53.028;8.834;2023-07-28T10:02:47;20.20;99.90
31455;DHT22;18084;53.028;8.834;2023-07-28T10:05:14;20.10;99.90
31455;DHT22;18084;53.028;8.834;2023-07-28T10:07:42;20.00;99.90
31455;DHT22;18084;53.028;8.834;2023-07-28T10:10:10;20.00;99.90
31455;DHT22;18084;53.028;8.834;2023-07-28T10:12:49;20.00;99.90
31455;DHT22;18084;53.028;8.834;2023-07-28T10:15:16;20.30;99.90
31455;DHT22;18084;53.028;8.834;2023-07-28T10:18:00;20.40;99.90
31455;DHT22;18084;53.028;8.834;2023-07-28T10:20:30;20.50;99.90
31455;DHT22;18084;53.028;8.834;2023-07-28T10:23:16;20.40;99.90
31455;DHT22;18084;53.028;8.834;2023-07-28T10:25:43;20.40;99.90
31455;DHT22;18084;53.028;8.834;2023-07-28T10:28:38;20.50;99.90
31455;DHT22;18084;53.028;8.834;2023-07-28T10:31:07;20.70;99.90
31455;DHT22;18084;53.028;8.834;2023-07-28T10:33:35;21.90;99.90
31455;DHT22;18084;53.028;8.834;2023-07-28T10:39:14;20.90;99.90
31455;DHT22;18084;53.028;8.834;2023-07-28T10:42:01;20.60;99.90
31455;DHT22;18084;53.028;8.834;2023-07-28T10:44:28;21.50;99.90
31455;DHT22;18084;53.028;8.834;2023-07-28T10:46:54;20.50;99.90
31455;DHT22;18084;53.028;8.834;2023-07-28T10:49:20;20.60;99.90
31455;DHT22;18084;53.028;8.834;2023-07-28T10:51:45;20.90;99.90
31455;DHT22;18084;53.028;8.834;2023-07-28T10:54:12;21.60;99.90
31455;DHT22;18084;53.028;8.834;2023-07-28T10:56:41;21.00;99.90
31455;DHT22;18084;53.028;8.834;2023-07-28T10:59:06;21.30;99.90
31455;DHT22;18084;53.028;8.834;2023-07-28T11:01:37;21.90;99.90
31455;DHT22;18084;53.028;8.834;2023-07-28T11:04:19;22.00;99.90
31455;DHT22;18084;53.028;8.834;2023-07-28T11:06:46;22.30;99.90
31455;DHT22;18084;53.028;8.834;2023-07-28T11:09:12;22.30;99.90
31455;DHT22;18084;53.028;8.834;2023-07-28T11:14:06;22.70;99.90
31455;DHT22;18084;53.028;8.834;2023-07-28T11:16:37;25.50;99.90
31455;DHT22;18084;53.028;8.834;2023-07-28T11:19:07;22.90;99.90
31455;DHT22;18084;53.028;8.834;2023-07-28T11:21:37;22.70;99.90
31455;DHT22;18084;53.028;8.834;2023-07-28T11:24:03;22.70;99.90
31455;DHT22;18084;53.028;8.834;2023-07-28T11:28:54;21.80;99.90
31455;DHT22;18084;53.028;8.834;2023-07-28T11:31:23;21.70;99.90
31455;DHT22;18084;53.028;8.834;2023-07-28T11:33:51;20.90;99.90
31455;DHT22;18084;53.028;8.834;2023-07-28T11:36:27;21.50;99.90
31455;DHT22;18084;53.028;8.834;2023-07-28T11:38:59;22.10;99.90
31455;DHT22;18084;53.028;8.834;2023-07-28T11:41:26;21.60;99.90
31455;DHT22;18084;53.028;8.834;2023-07-28T11:46:38;21.40;99.90
31455;DHT22;18084;53.028;8.834;2023-07-28T11:49:15;21.30;99.90
31455;DHT22;18084;53.028;8.834;2023-07-28T11:51:51;21.30;99.90
31455;DHT22;18084;53.028;8.834;2023-07-28T11:54:19;21.40;99.90
31455;DHT22;18084;53.028;8.834;2023-07-28T11:59:18;21.60;99.90
31455;DHT22;18084;53.028;8.834;2023-07-28T12:01:55;22.00;99.90
31455;DHT22;18084;53.028;8.834;2023-07-28T12:04:26;22.00;99.90
31455;DHT22;18084;53.028;8.834;2023-07-28T12:07:14;22.50;99.90
31455;DHT22;18084;53.028;8.834;2023-07-28T12:12:15;22.50;99.90
31455;DHT22;18084;53.028;8.834;2023-07-28T12:17:18;23.00;99.90
31455;DHT22;18084;53.028;8.834;2023-07-28T12:20:05;23.10;99.90
31455;DHT22;18084;53.028;8.834;2023-07-28T12:22:44;23.70;99.90
31455;DHT22;18084;53.028;8.834;2023-07-28T12:25:10;24.30;99.90
31455;DHT22;18084;53.028;8.834;2023-07-28T12:27:36;24.50;99.90
31455;DHT22;18084;53.028;8.834;2023-07-28T12:30:03;24.40;93.70
31455;DHT22;18084;53.028;8.834;2023-07-28T12:34:54;24.10;93.20
31455;DHT22;18084;53.028;8.834;2023-07-28T12:37:20;24.60;97.30
31455;DHT22;18084;53.028;8.834;2023-07-28T12:44:41;23.60;99.90
31455;DHT22;18084;53.028;8.834;2023-07-28T12:47:06;25.10;99.90
31455;DHT22;18084;53.028;8.834;2023-07-28T12:52:01;23.60;99.90
31455;DHT22;18084;53.028;8.834;2023-07-28T12:59:21;23.20;99.90
31455;DHT22;18084;53.028;8.834;2023-07-28T13:01:46;23.10;99.90
31455;DHT22;18084;53.028;8.834;2023-07-28T13:11:33;23.20;99.90
31455;DHT22;18084;53.028;8.834;2023-07-28T13:18:53;23.10;99.90
31455;DHT22;18084;53.028;8.834;2023-07-28T13:21:18;22.90;99.90
31455;DHT22;18084;53.028;8.834;2023-07-28T13:23:44;22.90;99.90
31455;DHT22;18084;53.028;8.834;2023-07-28T13:33:28;22.80;99.90
31455;DHT22;18084;53.028;8.834;2023-07-28T13:35:53;23.60;99.90
31455;DHT22;18084;53.028;8.834;2023-07-28T13:38:19;24.60;97.60
31455;DHT22;18084;53.028;8.834;2023-07-28T13:52:55;24.60;79.40
31455;DHT22;18084;53.028;8.834;2023-07-28T13:55:20;25.40;92.60
31455;DHT22;18084;53.028;8.834;2023-07-28T14:00:12;24.50;95.00
31455;DHT22;18084;53.028;8.834;2023-07-28T14:02:38;24.40;89.90
31455;DHT22;18084;53.028;8.834;2023-07-28T14:05:05;24.20;91.80
31455;DHT22;18084;53.028;8.834;2023-07-28T14:07:31;24.10;93.90
31455;DHT22;18084;53.028;8.834;2023-07-28T14:09:57;26.10;94.40
31455;DHT22;18084;53.028;8.834;2023-07-28T14:12:22;23.80;97.10
31455;DHT22;18084;53.028;8.834;2023-07-28T14:17:15;23.60;99.90
31455;DHT22;18084;53.028;8.834;2023-07-28T14:19:41;23.40;99.90
31455;DHT22;18084;53.028;8.834;2023-07-28T14:22:07;23.40;97.60
31455;DHT22;18084;53.028;8.834;2023-07-28T14:24:32;23.40;98.50
31455;DHT22;18084;53.028;8.834;2023-07-28T14:26:58;23.50;94.50
31455;DHT22;18084;53.028;8.834;2023-07-28T14:29:24;23.30;98.50
31455;DHT22;18084;53.028;8.834;2023-07-28T14:31:49;23.30;99.90
31455;DHT22;18084;53.028;8.834;2023-07-28T14:34:15;23.20;99.90
31455;DHT22;18084;53.028;8.834;2023-07-28T14:36:40;23.30;99.90
31455;DHT22;18084;53.028;8.834;2023-07-28T14:41:33;23.30;99.90
31455;DHT22;18084;53.028;8.834;2023-07-28T14:43:58;23.30;99.90
31455;DHT22;18084;53.028;8.834;2023-07-28T14:46:24;23.30;99.90
31455;DHT22;18084;53.028;8.834;2023-07-28T14:48:51;23.10;99.90
31455;DHT22;18084;53.028;8.834;2023-07-28T14:51:17;22.90;99.90
31455;DHT22;18084;53.028;8.834;2023-07-28T14:56:11;22.60;99.90
31455;DHT22;18084;53.028;8.834;2023-07-28T14:58:36;22.00;99.90
31455;DHT22;18084;53.028;8.834;2023-07-28T15:01:05;21.60;99.90
31455;DHT22;18084;53.028;8.834;2023-07-28T15:03:31;21.60;99.90
31455;DHT22;18084;53.028;8.834;2023-07-28T15:08:23;21.20;99.90
31455;DHT22;18084;53.028;8.834;2023-07-28T15:13:14;21.10;99.90
31455;DHT22;18084;53.028;8.834;2023-07-28T15:18:06;21.10;99.90
31455;DHT22;18084;53.028;8.834;2023-07-28T15:20:33;21.20;99.90
31455;DHT22;18084;53.028;8.834;2023-07-28T15:22:59;21.20;99.90
31455;DHT22;18084;53.028;8.834;2023-07-28T15:27:51;21.50;99.90
31455;DHT22;18084;53.028;8.834;2023-07-28T15:30:17;21.50;99.90
31455;DHT22;18084;53.028;8.834;2023-07-28T15:35:08;21.40;99.90
31455;DHT22;18084;53.028;8.834;2023-07-28T15:37:36;21.50;99.90
31455;DHT22;18084;53.028;8.834;2023-07-28T15:42:28;21.40;99.90
31455;DHT22;18084;53.028;8.834;2023-07-28T15:47:19;21.40;99.90
31455;DHT22;18084;53.028;8.834;2023-07-28T15:49:45;21.40;99.90
31455;DHT22;18084;53.028;8.834;2023-07-28T15:54:36;21.40;99.90
31455;DHT22;18084;53.028;8.834;2023-07-28T15:57:02;21.20;99.90
31455;DHT22;18084;53.028;8.834;2023-07-28T15:59:30;21.50;99.90
31455;DHT22;18084;53.028;8.834;2023-07-28T16:01:56;21.40;99.90
31455;DHT22;18084;53.028;8.834;2023-07-28T16:09:14;21.40;99.90
31455;DHT22;18084;53.028;8.834;2023-07-28T16:11:39;21.40;99.90
31455;DHT22;18084;53.028;8.834;2023-07-28T16:14:05;21.50;99.90
31455;DHT22;18084;53.028;8.834;2023-07-28T16:18:56;21.60;99.90
31455;DHT22;18084;53.028;8.834;2023-07-28T16:21:22;21.90;99.90
31455;DHT22;18084;53.028;8.834;2023-07-28T16:23:47;21.80;99.90
31455;DHT22;18084;53.028;8.834;2023-07-28T16:26:13;21.90;99.90
31455;DHT22;18084;53.028;8.834;2023-07-28T16:28:38;24.60;99.90
31455;DHT22;18084;53.028;8.834;2023-07-28T16:35:57;21.90;99.90
31455;DHT22;18084;53.028;8.834;2023-07-28T16:38:23;24.30;99.90
31455;DHT22;18084;53.028;8.834;2023-07-28T16:40:49;22.10;99.90
31455;DHT22;18084;53.028;8.834;2023-07-28T16:43:14;23.80;99.90
31455;DHT22;18084;53.028;8.834;2023-07-28T16:45:40;22.10;99.90
31455;DHT22;18084;53.028;8.834;2023-07-28T16:50:31;22.10;99.90
31455;DHT22;18084;53.028;8.834;2023-07-28T16:55:23;22.20;99.90
31455;DHT22;18084;53.028;8.834;2023-07-28T16:57:49;22.10;99.90
31455;DHT22;18084;53.028;8.834;2023-07-28T17:02:41;22.20;99.90
31455;DHT22;18084;53.028;8.834;2023-07-28T17:05:07;24.50;99.90
31455;DHT22;18084;53.028;8.834;2023-07-28T17:07:33;22.00;99.90
31455;DHT22;18084;53.028;8.834;2023-07-28T17:09:58;22.00;99.90
31455;DHT22;18084;53.028;8.834;2023-07-28T17:14:50;21.90;99.90
31455;DHT22;18084;53.028;8.834;2023-07-28T17:17:15;21.80;99.90
31455;DHT22;18084;53.028;8.834;2023-07-28T17:19:44;21.90;99.90
31455;DHT22;18084;53.028;8.834;2023-07-28T17:22:09;21.70;99.90
31455;DHT22;18084;53.028;8.834;2023-07-28T17:24:35;21.70;99.90
31455;DHT22;18084;53.028;8.834;2023-07-28T17:29:26;21.60;99.90
31455;DHT22;18084;53.028;8.834;2023-07-28T17:39:11;21.40;99.90
31455;DHT22;18084;53.028;8.834;2023-07-28T17:41:36;21.50;99.90
31455;DHT22;18084;53.028;8.834;2023-07-28T17:44:02;21.40;99.90
31455;DHT22;18084;53.028;8.834;2023-07-28T17:46:28;21.50;99.90
31455;DHT22;18084;53.028;8.834;2023-07-28T17:51:19;21.40;99.90
31455;DHT22;18084;53.028;8.834;2023-07-28T17:53:45;21.40;99.90
31455;DHT22;18084;53.028;8.834;2023-07-28T17:58:36;21.40;99.90
31455;DHT22;18084;53.028;8.834;2023-07-28T18:20:37;21.10;99.90
31455;DHT22;18084;53.028;8.834;2023-07-28T18:25:29;21.00;99.90
31455;DHT22;18084;53.028;8.834;2023-07-28T18:30:22;20.90;99.90
31455;DHT22;18084;53.028;8.834;2023-07-28T18:32:47;20.90;99.90
31455;DHT22;18084;53.028;8.834;2023-07-28T18:37:39;20.90;99.90
31455;DHT22;18084;53.028;8.834;2023-07-28T18:40:05;20.90;99.90
31455;DHT22;18084;53.028;8.834;2023-07-28T18:42:32;20.80;99.90
31455;DHT22;18084;53.028;8.834;2023-07-28T18:44:58;20.70;99.90
31455;DHT22;18084;53.028;8.834;2023-07-28T18:47:24;20.70;99.90
31455;DHT22;18084;53.028;8.834;2023-07-28T19:01:59;20.50;99.90
31455;DHT22;18084;53.028;8.834;2023-07-28T19:06:51;20.40;99.90
31455;DHT22;18084;53.028;8.834;2023-07-28T19:09:17;20.30;99.90
31455;DHT22;18084;53.028;8.834;2023-07-28T19:16:34;20.10;99.90
31455;DHT22;18084;53.028;8.834;2023-07-28T19:19:00;20.10;99.90
31455;DHT22;18084;53.028;8.834;2023-07-28T19:21:26;20.00;99.90
31455;DHT22;18084;53.028;8.834;2023-07-28T19:28:44;19.90;99.90
31455;DHT22;18084;53.028;8.834;2023-07-28T19:31:09;19.80;99.90
31455;DHT22;18084;53.028;8.834;2023-07-28T19:38:28;19.80;99.90
31455;DHT22;18084;53.028;8.834;2023-07-28T19:43:20;19.70;99.90
31455;DHT22;18084;53.028;8.834;2023-07-28T19:45:46;19.70;99.90
31455;DHT22;18084;53.028;8.834;2023-07-28T19:48:12;19.70;99.90
